createdAt,value
2022-10-20T00:01:50.588Z,11.60
2022-10-20T00:04:17.212Z,9.80
2022-10-20T00:06:43.813Z,9.70
2022-10-20T00:09:10.489Z,9.80
2022-10-20T00:11:37.161Z,9.80
2022-10-20T00:14:04.822Z,9.80
2022-10-20T00:16:35.038Z,9.80
2022-10-20T00:19:01.805Z,9.80
2022-10-20T00:21:29.728Z,9.70
2022-10-20T00:24:00.103Z,9.70
2022-10-20T00:26:28.040Z,9.80
2022-10-20T00:28:55.141Z,9.80
2022-10-20T00:31:23.501Z,9.60
2022-10-20T00:33:50.133Z,9.60
2022-10-20T00:36:18.778Z,9.70
2022-10-20T00:38:45.886Z,9.60
2022-10-20T00:41:20.982Z,9.60
2022-10-20T00:43:57.334Z,9.60
2022-10-20T00:46:25.053Z,9.60
2022-10-20T00:49:00.168Z,9.60
2022-10-20T00:51:28.840Z,9.60
2022-10-20T00:54:05.571Z,9.70
2022-10-20T00:56:32.645Z,9.60
2022-10-20T00:59:01.723Z,10.00
2022-10-20T01:01:28.396Z,9.60
2022-10-20T01:03:55.168Z,9.60
2022-10-20T01:06:22.796Z,9.60
2022-10-20T01:08:54.111Z,9.60
2022-10-20T01:11:29.084Z,9.50
2022-10-20T01:14:14.000Z,9.50
2022-10-20T01:17:05.162Z,9.50
2022-10-20T01:19:59.138Z,9.40
2022-10-20T01:23:03.250Z,9.50
2022-10-20T01:25:54.607Z,9.40
2022-10-20T01:28:27.041Z,9.50
2022-10-20T01:31:00.073Z,9.50
2022-10-20T01:33:36.712Z,9.50
2022-10-20T01:36:11.231Z,9.50
2022-10-20T01:38:44.068Z,9.40
2022-10-20T01:41:17.189Z,9.40
2022-10-20T01:43:46.035Z,9.40
2022-10-20T01:46:15.500Z,9.40
2022-10-20T01:48:42.240Z,9.40
2022-10-20T01:51:09.865Z,9.30
2022-10-20T01:53:36.676Z,9.20
2022-10-20T01:56:04.464Z,9.20
2022-10-20T01:59:01.305Z,9.10
2022-10-20T02:02:05.276Z,9.10
2022-10-20T02:05:06.395Z,9.10
2022-10-20T02:07:34.071Z,9.00
2022-10-20T02:10:11.066Z,9.00
2022-10-20T02:12:40.556Z,9.00
2022-10-20T02:15:10.576Z,9.00
2022-10-20T02:17:40.469Z,9.10
2022-10-20T02:20:08.091Z,9.10
2022-10-20T02:22:35.396Z,9.00
2022-10-20T02:25:02.332Z,9.00
2022-10-20T02:27:35.947Z,8.90
2022-10-20T02:30:08.598Z,8.90
2022-10-20T02:32:38.512Z,8.90
2022-10-20T02:35:09.824Z,8.90
2022-10-20T02:37:36.813Z,9.00
2022-10-20T02:40:04.669Z,8.90
2022-10-20T02:42:31.266Z,9.30
2022-10-20T02:44:57.929Z,8.80
2022-10-20T02:47:24.545Z,8.80
2022-10-20T02:49:51.156Z,8.80
2022-10-20T02:52:17.761Z,8.80
2022-10-20T02:54:44.397Z,8.90
2022-10-20T02:57:11.107Z,8.90
2022-10-20T02:59:37.810Z,8.90
2022-10-20T03:02:04.617Z,8.80
2022-10-20T03:04:31.261Z,9.80
2022-10-20T03:06:57.852Z,8.80
2022-10-20T03:09:24.481Z,8.70
2022-10-20T03:11:51.065Z,9.10
2022-10-20T03:14:17.709Z,9.60
2022-10-20T03:16:44.336Z,8.60
2022-10-20T03:19:11.979Z,8.70
2022-10-20T03:21:38.789Z,8.70
2022-10-20T03:24:05.679Z,8.70
2022-10-20T03:26:32.400Z,8.60
2022-10-20T03:28:59.023Z,8.70
2022-10-20T03:31:25.634Z,8.70
2022-10-20T03:33:52.234Z,8.70
2022-10-20T03:36:18.846Z,8.70
2022-10-20T03:38:45.439Z,8.70
2022-10-20T03:41:12.169Z,8.70
2022-10-20T03:43:40.060Z,8.70
2022-10-20T03:46:09.465Z,8.70
2022-10-20T03:48:36.885Z,8.70
2022-10-20T03:51:03.995Z,8.70
2022-10-20T03:53:32.086Z,8.70
2022-10-20T03:55:58.933Z,10.60
2022-10-20T03:58:25.564Z,8.80
2022-10-20T04:00:52.309Z,8.70
2022-10-20T04:03:18.900Z,8.70
2022-10-20T04:05:45.490Z,8.60
2022-10-20T04:08:12.172Z,8.50
2022-10-20T04:10:38.841Z,8.50
2022-10-20T04:13:05.472Z,8.40
2022-10-20T04:15:32.281Z,8.50
2022-10-20T04:17:59.321Z,8.30
2022-10-20T04:20:26.190Z,8.30
2022-10-20T04:22:52.818Z,8.30
2022-10-20T04:25:19.435Z,8.30
2022-10-20T04:27:46.051Z,8.30
2022-10-20T04:30:12.832Z,8.40
2022-10-20T04:32:39.434Z,8.40
2022-10-20T04:35:06.431Z,8.50
2022-10-20T04:37:33.271Z,8.30
2022-10-20T04:40:00.068Z,8.30
2022-10-20T04:42:26.643Z,8.40
2022-10-20T04:44:53.252Z,8.40
2022-10-20T04:47:20.054Z,8.30
2022-10-20T04:49:46.667Z,7.50
2022-10-20T04:52:14.035Z,8.40
2022-10-20T04:54:40.646Z,8.30
2022-10-20T04:57:07.251Z,8.40
2022-10-20T04:59:33.870Z,8.40
2022-10-20T05:02:00.521Z,8.40
2022-10-20T05:04:27.314Z,8.40
2022-10-20T05:06:53.915Z,8.30
2022-10-20T05:09:20.657Z,8.30
2022-10-20T05:11:47.303Z,8.30
2022-10-20T05:14:13.903Z,8.30
2022-10-20T05:16:40.506Z,8.40
2022-10-20T05:19:07.125Z,8.40
2022-10-20T05:21:34.130Z,8.30
2022-10-20T05:24:02.988Z,8.40
2022-10-20T05:26:36.974Z,8.70
2022-10-20T05:29:05.625Z,10.20
2022-10-20T05:31:35.992Z,11.00
2022-10-20T05:34:02.609Z,11.50
2022-10-20T05:36:29.204Z,11.80
2022-10-20T05:38:56.497Z,11.60
2022-10-20T05:41:29.795Z,11.20
2022-10-20T05:44:02.222Z,10.60
2022-10-20T05:46:34.183Z,9.90
2022-10-20T05:49:02.803Z,9.50
2022-10-20T05:51:33.616Z,9.20
2022-10-20T05:54:00.352Z,9.20
2022-10-20T05:56:28.660Z,8.90
2022-10-20T05:58:55.733Z,8.80
2022-10-20T06:01:25.463Z,8.70
2022-10-20T06:03:59.241Z,8.70
2022-10-20T06:06:30.859Z,8.70
2022-10-20T06:08:59.609Z,8.60
2022-10-20T06:11:26.842Z,8.60
2022-10-20T06:13:53.679Z,8.60
2022-10-20T06:16:29.607Z,8.50
2022-10-20T06:18:58.095Z,8.50
2022-10-20T06:21:27.575Z,8.50
2022-10-20T06:23:54.396Z,8.50
2022-10-20T06:26:25.520Z,8.60
2022-10-20T06:28:54.448Z,8.60
2022-10-20T06:31:23.502Z,8.60
2022-10-20T06:33:50.821Z,8.60
2022-10-20T06:36:18.556Z,8.60
2022-10-20T06:38:46.021Z,8.70
2022-10-20T06:41:16.737Z,8.70
2022-10-20T06:43:44.501Z,8.70
2022-10-20T06:46:13.888Z,8.60
2022-10-20T06:48:40.643Z,8.60
2022-10-20T06:51:16.094Z,8.60
2022-10-20T06:53:46.576Z,8.70
2022-10-20T06:56:22.918Z,8.80
2022-10-20T06:58:52.098Z,8.70
2022-10-20T07:01:24.392Z,8.80
2022-10-20T07:03:53.715Z,8.80
2022-10-20T07:06:23.373Z,8.80
2022-10-20T07:08:51.150Z,8.90
2022-10-20T07:11:19.718Z,7.40
2022-10-20T07:13:46.837Z,8.90
2022-10-20T07:16:16.247Z,9.00
2022-10-20T07:21:17.970Z,9.10
2022-10-20T07:23:45.594Z,9.40
2022-10-20T07:26:20.290Z,9.40
2022-10-20T07:28:53.337Z,10.90
2022-10-20T07:31:31.235Z,9.60
2022-10-20T07:34:12.924Z,9.60
2022-10-20T07:36:43.383Z,9.60
2022-10-20T07:39:12.328Z,9.70
2022-10-20T07:41:39.577Z,9.80
2022-10-20T07:44:07.400Z,9.80
2022-10-20T07:46:34.072Z,9.90
2022-10-20T07:49:23.895Z,9.90
2022-10-20T07:51:47.758Z,10.10
2022-10-20T07:54:14.589Z,10.00
2022-10-20T07:56:43.356Z,10.30
2022-10-20T07:59:11.281Z,10.90
2022-10-20T08:01:39.476Z,11.20
2022-10-20T08:04:06.484Z,10.20
2022-10-20T08:06:33.407Z,11.40
2022-10-20T08:09:00.319Z,11.80
2022-10-20T08:11:27.227Z,11.90
2022-10-20T08:13:53.826Z,11.50
2022-10-20T08:16:30.120Z,11.40
2022-10-20T08:19:04.272Z,11.40
2022-10-20T08:21:31.162Z,11.30
2022-10-20T08:23:57.935Z,11.20
2022-10-20T08:26:25.996Z,11.20
2022-10-20T08:28:54.468Z,11.30
2022-10-20T08:31:21.966Z,11.20
2022-10-20T08:33:52.353Z,11.20
2022-10-20T08:36:19.681Z,11.20
2022-10-20T08:38:46.326Z,11.30
2022-10-20T08:41:21.309Z,11.30
2022-10-20T08:43:50.680Z,11.40
2022-10-20T08:46:20.229Z,11.50
2022-10-20T08:48:48.776Z,11.60
2022-10-20T08:51:20.045Z,11.50
2022-10-20T08:53:48.626Z,11.50
2022-10-20T08:56:15.694Z,11.50
2022-10-20T08:58:44.436Z,11.60
2022-10-20T09:01:32.847Z,11.70
2022-10-20T09:04:18.438Z,11.80
2022-10-20T09:06:50.639Z,11.90
2022-10-20T09:09:19.785Z,11.90
2022-10-20T09:11:46.751Z,11.90
2022-10-20T09:14:14.286Z,11.90
2022-10-20T09:16:59.213Z,11.90
2022-10-20T09:19:28.203Z,12.00
2022-10-20T09:22:03.488Z,12.10
2022-10-20T09:24:31.698Z,12.10
2022-10-20T09:27:24.313Z,12.10
2022-10-20T09:29:51.274Z,12.10
2022-10-20T09:32:46.553Z,12.10
2022-10-20T09:35:30.693Z,12.10
2022-10-20T09:38:22.571Z,12.20
2022-10-20T09:41:08.150Z,12.30
2022-10-20T09:43:35.165Z,12.30
2022-10-20T09:46:09.363Z,12.30
2022-10-20T09:48:40.217Z,12.40
2022-10-20T09:51:15.192Z,12.50
2022-10-20T09:53:56.759Z,12.50
2022-10-20T09:56:33.354Z,12.60
2022-10-20T09:59:02.613Z,12.60
2022-10-20T10:01:29.343Z,12.70
2022-10-20T10:04:01.685Z,12.70
2022-10-20T10:06:29.816Z,12.70
2022-10-20T10:08:58.644Z,12.70
2022-10-20T10:11:36.371Z,12.80
2022-10-20T10:14:03.713Z,12.70
2022-10-20T10:16:41.609Z,12.70
2022-10-20T10:21:52.625Z,12.60
2022-10-20T10:24:41.926Z,12.60
2022-10-20T10:27:29.428Z,12.80
2022-10-20T10:30:18.507Z,12.90
2022-10-20T10:32:46.659Z,12.90
2022-10-20T10:35:27.942Z,12.80
2022-10-20T10:37:55.523Z,12.80
2022-10-20T10:40:59.463Z,13.00
2022-10-20T10:43:50.243Z,13.10
2022-10-20T10:46:20.668Z,13.20
2022-10-20T10:49:14.775Z,13.20
2022-10-20T10:52:03.900Z,13.20
2022-10-20T10:55:30.649Z,13.70
2022-10-20T10:58:25.324Z,13.20
2022-10-20T11:01:05.980Z,13.30
2022-10-20T11:03:58.194Z,13.30
2022-10-20T11:06:38.502Z,13.30
2022-10-20T11:09:26.170Z,13.30
2022-10-20T11:12:37.602Z,13.30
2022-10-20T11:15:40.401Z,13.30
2022-10-20T11:18:31.024Z,13.30
2022-10-20T11:21:20.190Z,13.30
2022-10-20T11:24:06.044Z,13.40
2022-10-20T11:26:39.641Z,13.30
2022-10-20T11:29:23.808Z,13.40
2022-10-20T11:32:26.595Z,13.40
2022-10-20T11:35:15.659Z,13.50
2022-10-20T11:38:13.604Z,13.60
2022-10-20T11:40:43.815Z,13.60
2022-10-20T11:43:17.965Z,13.70
2022-10-20T11:45:50.946Z,13.80
2022-10-20T11:48:25.849Z,13.90
2022-10-20T11:51:10.774Z,13.90
2022-10-20T11:53:46.776Z,13.90
2022-10-20T11:56:35.572Z,13.90
2022-10-20T11:59:21.676Z,13.90
2022-10-20T12:02:25.825Z,13.90
2022-10-20T12:05:01.344Z,13.80
2022-10-20T12:07:47.012Z,13.80
2022-10-20T12:10:37.185Z,13.90
2022-10-20T12:13:25.265Z,13.90
2022-10-20T12:15:53.275Z,14.00
2022-10-20T12:18:31.046Z,14.10
2022-10-20T12:21:02.029Z,14.10
2022-10-20T12:23:44.184Z,14.20
2022-10-20T12:26:29.757Z,14.20
2022-10-20T12:29:45.694Z,14.20
2022-10-20T12:32:27.628Z,14.10
2022-10-20T12:35:10.858Z,14.10
2022-10-20T12:37:42.141Z,14.10
2022-10-20T12:40:11.422Z,14.10
2022-10-20T12:42:40.038Z,14.00
2022-10-20T12:45:31.178Z,14.10
2022-10-20T12:48:00.726Z,14.10
2022-10-20T12:50:30.110Z,14.30
2022-10-20T12:53:09.022Z,14.30
2022-10-20T12:55:41.021Z,14.40
2022-10-20T12:58:17.571Z,14.40
2022-10-20T13:00:47.127Z,14.50
2022-10-20T13:03:32.129Z,14.60
2022-10-20T13:05:59.509Z,14.50
2022-10-20T13:08:30.506Z,14.60
2022-10-20T13:11:42.953Z,14.50
2022-10-20T13:14:12.555Z,14.50
2022-10-20T13:16:50.446Z,14.50
2022-10-20T13:19:22.888Z,14.50
2022-10-20T13:21:50.421Z,14.40
2022-10-20T13:24:20.951Z,14.40
2022-10-20T13:26:57.533Z,14.50
2022-10-20T13:29:33.271Z,14.40
2022-10-20T13:32:12.864Z,14.40
2022-10-20T13:35:04.252Z,14.50
2022-10-20T13:37:49.492Z,14.50
2022-10-20T13:40:36.516Z,14.60
2022-10-20T13:43:11.292Z,14.60
2022-10-20T13:45:50.145Z,14.60
2022-10-20T13:48:40.606Z,14.60
2022-10-20T13:51:47.935Z,14.60
2022-10-20T13:54:24.870Z,14.60
2022-10-20T13:56:52.019Z,14.60
2022-10-20T13:59:24.519Z,14.70
2022-10-20T14:02:00.198Z,14.60
2022-10-20T14:04:32.959Z,14.60
2022-10-20T14:07:13.292Z,14.50
2022-10-20T14:09:45.283Z,14.50
2022-10-20T14:12:21.109Z,14.50
2022-10-20T14:14:47.766Z,14.50
2022-10-20T14:17:22.881Z,14.50
2022-10-20T14:19:50.404Z,14.50
2022-10-20T14:22:23.035Z,14.50
2022-10-20T14:24:53.456Z,14.40
2022-10-20T14:27:26.413Z,14.50
2022-10-20T14:29:53.820Z,14.50
2022-10-20T14:32:26.903Z,14.40
2022-10-20T14:35:02.318Z,14.40
2022-10-20T14:37:37.216Z,14.40
2022-10-20T14:40:40.216Z,14.40
2022-10-20T14:43:16.312Z,14.30
2022-10-20T14:45:56.485Z,14.30
2022-10-20T14:48:23.559Z,14.30
2022-10-20T14:50:50.309Z,14.30
2022-10-20T14:53:22.947Z,14.20
2022-10-20T14:55:49.614Z,14.20
2022-10-20T14:58:31.380Z,14.20
2022-10-20T15:01:33.602Z,14.20
2022-10-20T15:04:24.780Z,14.10
2022-10-20T15:07:06.650Z,14.20
2022-10-20T15:09:44.595Z,14.20
2022-10-20T15:12:20.603Z,14.20
2022-10-20T15:14:53.239Z,14.10
2022-10-20T15:17:50.521Z,14.10
2022-10-20T15:20:38.751Z,14.00
2022-10-20T15:23:20.565Z,14.00
2022-10-20T15:25:52.298Z,13.90
2022-10-20T15:28:38.112Z,13.90
2022-10-20T15:31:17.534Z,13.80
2022-10-20T15:33:44.179Z,13.90
2022-10-20T15:36:21.080Z,13.80
2022-10-20T15:38:51.074Z,13.80
2022-10-20T15:41:19.380Z,13.70
2022-10-20T15:43:46.195Z,13.60
2022-10-20T15:46:14.263Z,13.90
2022-10-20T15:48:41.903Z,14.40
2022-10-20T15:51:17.558Z,14.80
2022-10-20T15:53:49.425Z,14.80
2022-10-20T15:56:17.361Z,14.70
2022-10-20T15:58:44.423Z,14.40
2022-10-20T16:01:14.843Z,14.20
2022-10-20T16:03:43.233Z,14.00
2022-10-20T16:06:13.303Z,13.90
2022-10-20T16:08:44.605Z,13.80
2022-10-20T16:11:14.494Z,13.70
2022-10-20T16:13:41.385Z,12.00
2022-10-20T16:16:11.933Z,13.50
2022-10-20T16:18:38.569Z,13.50
2022-10-20T16:21:06.044Z,13.40
2022-10-20T16:23:38.306Z,13.40
2022-10-20T16:26:12.547Z,13.40
2022-10-20T16:28:39.635Z,13.50
2022-10-20T16:31:09.254Z,13.50
2022-10-20T16:33:36.566Z,13.50
2022-10-20T16:38:41.006Z,13.50
2022-10-20T16:41:12.542Z,13.50
2022-10-20T16:43:41.471Z,13.40
2022-10-20T16:46:09.932Z,13.40
2022-10-20T16:48:39.029Z,13.40
2022-10-20T16:51:08.277Z,13.40
2022-10-20T16:53:34.929Z,12.00
2022-10-20T16:56:01.642Z,13.30
2022-10-20T16:58:28.314Z,13.40
2022-10-20T17:01:04.452Z,13.40
2022-10-20T17:03:31.184Z,13.40
2022-10-20T17:06:00.218Z,13.40
2022-10-20T17:08:31.863Z,13.40
2022-10-20T17:11:00.954Z,13.30
2022-10-20T17:13:28.237Z,13.30
2022-10-20T17:15:55.112Z,13.30
2022-10-20T17:18:23.178Z,13.30
2022-10-20T17:20:54.636Z,13.20
2022-10-20T17:23:23.419Z,13.30
2022-10-20T17:25:51.182Z,13.30
2022-10-20T17:28:18.144Z,13.30
2022-10-20T17:30:46.160Z,13.20
2022-10-20T17:33:13.376Z,13.20
2022-10-20T17:35:40.020Z,13.30
2022-10-20T17:38:06.783Z,13.30
2022-10-20T17:40:37.709Z,13.30
2022-10-20T17:43:04.719Z,13.20
2022-10-20T17:45:34.940Z,13.30
2022-10-20T17:48:04.363Z,13.30
2022-10-20T17:50:31.029Z,13.30
2022-10-20T17:53:00.541Z,13.30
2022-10-20T17:55:27.485Z,13.30
2022-10-20T17:57:54.093Z,13.30
2022-10-20T18:00:31.690Z,13.30
2022-10-20T18:03:07.393Z,13.30
2022-10-20T18:05:36.476Z,13.20
2022-10-20T18:08:03.177Z,13.20
2022-10-20T18:10:29.758Z,13.30
2022-10-20T18:12:56.387Z,13.30
2022-10-20T18:15:23.010Z,13.30
2022-10-20T18:17:49.659Z,13.20
2022-10-20T18:20:16.338Z,11.80
2022-10-20T18:22:42.960Z,13.20
2022-10-20T18:25:09.695Z,13.20
2022-10-20T18:27:36.285Z,13.40
2022-10-20T18:30:02.970Z,13.70
2022-10-20T18:32:29.594Z,13.60
2022-10-20T18:34:56.152Z,13.60
2022-10-20T18:37:22.746Z,13.30
2022-10-20T18:39:49.746Z,13.20
2022-10-20T18:42:16.348Z,13.10
2022-10-20T18:44:42.935Z,12.90
2022-10-20T18:47:10.840Z,12.90
2022-10-20T18:49:37.438Z,12.80
2022-10-20T18:52:04.079Z,12.70
2022-10-20T18:54:30.708Z,12.70
2022-10-20T18:56:57.374Z,12.60
2022-10-20T18:59:24.142Z,12.60
2022-10-20T19:01:50.724Z,12.60
2022-10-20T19:04:17.641Z,12.60
2022-10-20T19:06:46.704Z,12.60
2022-10-20T19:09:16.917Z,11.60
2022-10-20T19:11:44.985Z,12.50
2022-10-20T19:14:12.032Z,12.50
2022-10-20T19:16:39.412Z,12.50
2022-10-20T19:19:09.184Z,12.40
2022-10-20T19:21:36.617Z,12.50
2022-10-20T19:24:16.289Z,12.40
2022-10-20T19:26:57.021Z,12.40
2022-10-20T19:29:29.482Z,12.40
2022-10-20T19:31:59.338Z,12.30
2022-10-20T19:34:37.904Z,12.30
2022-10-20T19:37:05.642Z,12.30
2022-10-20T19:39:35.616Z,12.30
2022-10-20T19:42:03.287Z,12.30
2022-10-20T19:44:30.621Z,12.30
2022-10-20T19:46:57.677Z,11.90
2022-10-20T19:49:25.057Z,12.30
2022-10-20T19:51:52.333Z,12.30
2022-10-20T19:54:19.955Z,12.30
2022-10-20T19:56:46.821Z,12.30
2022-10-20T19:59:13.780Z,12.20
2022-10-20T20:01:40.557Z,12.20
2022-10-20T20:04:07.486Z,12.10
2022-10-20T20:06:34.865Z,12.10
2022-10-20T20:09:04.540Z,12.10
2022-10-20T20:11:31.329Z,12.10
2022-10-20T20:14:06.724Z,12.10
2022-10-20T20:16:33.661Z,12.00
2022-10-20T20:19:00.350Z,12.10
2022-10-20T20:21:27.420Z,12.10
2022-10-20T20:24:00.150Z,12.10
2022-10-20T20:26:33.227Z,12.10
2022-10-20T20:29:00.536Z,12.10
2022-10-20T20:31:27.468Z,12.10
2022-10-20T20:33:54.995Z,12.10
2022-10-20T20:36:21.777Z,12.20
2022-10-20T20:38:50.701Z,12.10
2022-10-20T20:41:20.706Z,12.20
2022-10-20T20:43:47.483Z,12.10
2022-10-20T20:46:16.675Z,12.10
2022-10-20T20:48:43.999Z,12.10
2022-10-20T20:51:11.474Z,12.10
2022-10-20T20:53:39.542Z,12.00
2022-10-20T20:56:12.837Z,11.90
2022-10-20T20:58:41.818Z,11.90
2022-10-20T21:01:16.282Z,11.90
2022-10-20T21:03:43.512Z,11.80
2022-10-20T21:06:12.876Z,11.90
2022-10-20T21:08:41.746Z,11.90
2022-10-20T21:11:11.072Z,11.90
2022-10-20T21:13:39.210Z,11.90
2022-10-20T21:16:09.026Z,12.00
2022-10-20T21:18:35.681Z,12.00
2022-10-20T21:23:43.803Z,12.10
2022-10-20T21:26:12.900Z,12.10
2022-10-20T21:28:40.825Z,12.10
2022-10-20T21:31:10.546Z,12.00
2022-10-20T21:33:38.598Z,12.00
2022-10-20T21:36:08.845Z,12.00
2022-10-20T21:38:37.782Z,12.00
2022-10-20T21:41:12.964Z,12.00
2022-10-20T21:43:42.302Z,12.10
2022-10-20T21:46:29.115Z,12.10
2022-10-20T21:49:00.152Z,12.10
2022-10-20T21:51:30.332Z,12.10
2022-10-20T21:54:02.126Z,12.20
2022-10-20T21:56:29.259Z,12.30
2022-10-20T21:58:56.314Z,12.20
2022-10-20T22:01:24.761Z,12.10
2022-10-20T22:03:53.349Z,12.10
2022-10-20T22:06:25.148Z,12.10
2022-10-20T22:08:54.226Z,12.10
2022-10-20T22:11:27.771Z,12.10
2022-10-20T22:13:54.543Z,12.00
2022-10-20T22:16:24.064Z,12.00
2022-10-20T22:19:01.484Z,12.00
2022-10-20T22:21:28.678Z,12.00
2022-10-20T22:23:56.916Z,12.00
2022-10-20T22:26:26.853Z,12.00
2022-10-20T22:28:53.880Z,11.90
2022-10-20T22:31:20.573Z,11.90
2022-10-20T22:33:47.190Z,12.00
2022-10-20T22:36:13.824Z,11.90
2022-10-20T22:38:40.451Z,11.90
2022-10-20T22:41:07.207Z,11.90
2022-10-20T22:43:33.952Z,11.90
2022-10-20T22:46:00.629Z,11.90
2022-10-20T22:48:27.223Z,11.90
2022-10-20T22:50:53.859Z,11.90
2022-10-20T22:53:20.560Z,11.90
2022-10-20T22:55:47.341Z,11.80
2022-10-20T22:58:13.993Z,11.80
2022-10-20T23:00:42.159Z,11.80
2022-10-20T23:03:08.865Z,11.70
2022-10-20T23:05:36.015Z,11.80
2022-10-20T23:08:02.651Z,11.70
2022-10-20T23:10:29.276Z,11.70
2022-10-20T23:12:55.879Z,11.70
2022-10-20T23:15:22.536Z,11.70
2022-10-20T23:17:49.149Z,11.70
2022-10-20T23:20:15.922Z,11.70
2022-10-20T23:22:42.538Z,11.80
2022-10-20T23:25:09.250Z,11.70
2022-10-20T23:27:36.526Z,11.60
2022-10-20T23:30:03.698Z,11.60
2022-10-20T23:32:30.335Z,11.60
2022-10-20T23:34:56.935Z,11.60
2022-10-20T23:37:23.662Z,11.70
2022-10-20T23:39:50.511Z,11.70
2022-10-20T23:42:17.730Z,11.70
2022-10-20T23:44:44.384Z,11.70
2022-10-20T23:47:10.992Z,11.70
2022-10-20T23:49:37.614Z,11.70
2022-10-20T23:52:04.301Z,11.70
2022-10-20T23:54:31.065Z,11.30
2022-10-20T23:56:57.667Z,11.70
2022-10-20T23:59:24.289Z,11.80
